Terminal Aerodrome Forecast
Issued by NWS

Home | Current Version | Previous Version | Text Only | Print | Product List | Glossary On
Versions: 1 2 3 4 5 6 7 8 9 10 11 12 13
457
FTUS45 KABQ 271123
TAFAEG
TAF
KAEG 271123Z 2712/2812 VRB05KT P6SM FEW150
     FM272300 02008KT P6SM SCT100
     FM280300 13006KT P6SM FEW150=

USA.gov is the U.S. government's official web portal to all federal, state and local government web resources and services.